Time;durP1;ratioP1;P1;durP2;ratioP2;P2;SDS_P1;SDS_P2;PMS_P1;PMS_P2;Temp;Humidity;BMP_temperature;BMP_pressure;BME280_temperature;BME280_humidity;BME280_pressure;Samples;Min_cycle;Max_cycle;Signal;HPM_P1;HPM_P2
2021/12/17 00:00:49;;;;;;;2.47;1.50;;;22.00;35.70;;;;;;5074491;28;20387;-68
2021/12/17 00:03:22;;;;;;;2.97;1.85;;;22.00;35.70;;;;;;5074649;28;20387;-68
2021/12/17 00:08:17;;;;;;;2.72;1.50;;;22.00;35.60;;;;;;5074743;28;20384;-68
2021/12/17 00:10:44;;;;;;;2.25;1.55;;;22.00;35.50;;;;;;5074348;28;20422;-68
2021/12/17 00:13:10;;;;;;;2.30;1.50;;;21.90;35.50;;;;;;5055770;28;20431;-68
2021/12/17 00:15:37;;;;;;;2.63;1.45;;;21.90;35.60;;;;;;5074499;28;20400;-68
2021/12/17 00:18:13;;;;;;;3.10;1.70;;;21.90;35.60;;;;;;5074435;28;20445;-68
2021/12/17 00:53:06;;;;;;;2.28;1.50;;;21.80;35.60;;;;;;5073438;28;20375;-69
2021/12/17 00:55:32;;;;;;;2.20;1.33;;;21.80;35.50;;;;;;5073829;28;20396;-68
2021/12/17 00:57:58;;;;;;;2.20;1.52;;;21.80;35.50;;;;;;5055746;28;20395;-68
2021/12/17 01:00:24;;;;;;;2.22;1.58;;;21.80;35.50;;;;;;5073712;28;20402;-68
2021/12/17 01:02:50;;;;;;;2.10;1.38;;;21.80;35.50;;;;;;5073315;28;20384;-68
2021/12/17 01:05:26;;;;;;;2.60;1.30;;;21.80;35.40;;;;;;5073325;28;20392;-68
2021/12/17 01:07:53;;;;;;;2.03;1.50;;;21.80;35.40;;;;;;5073565;28;20380;-69
2021/12/17 01:10:30;;;;;;;2.25;1.25;;;21.80;35.30;;;;;;5073311;28;20416;-69
2021/12/17 01:12:56;;;;;;;2.15;1.50;;;21.80;35.50;;;;;;5073041;28;20479;-68
2021/12/17 01:15:23;;;;;;;1.92;1.45;;;21.80;35.40;;;;;;5073586;28;20392;-68
2021/12/17 01:17:53;;;;;;;1.88;1.30;;;21.80;35.50;;;;;;5055397;28;20437;-68
2021/12/17 01:25:33;;;;;;;1.73;1.23;;;21.80;35.40;;;;;;5073028;28;20841;-68
2021/12/17 01:36:24;;;;;;;1.90;1.40;;;21.80;35.40;;;;;;5073328;28;20906;-68
2021/12/17 01:44:13;;;;;;;2.30;1.45;;;21.70;35.50;;;;;;5072940;28;20395;-68
2021/12/17 01:46:39;;;;;;;2.30;1.42;;;21.80;35.50;;;;;;5054765;28;20740;-68
2021/12/17 01:59:58;;;;;;;1.30;1.08;;;21.80;35.10;;;;;;5072134;28;20399;-68
2021/12/17 02:02:24;;;;;;;2.08;1.30;;;21.80;35.20;;;;;;5054552;28;20949;-68
2021/12/17 02:04:50;;;;;;;1.52;1.20;;;21.80;35.20;;;;;;5071912;28;20402;-68
2021/12/17 02:07:15;;;;;;;2.33;1.40;;;21.80;35.30;;;;;;5054293;28;20391;-68
2021/12/17 02:12:43;;;;;;;1.60;1.25;;;21.80;35.20;;;;;;5072380;28;20475;-68
2021/12/17 02:31:23;;;;;;;1.75;1.20;;;21.60;35.30;;;;;;5071531;28;20417;-68
2021/12/17 02:33:49;;;;;;;1.73;1.10;;;21.60;35.30;;;;;;5071862;28;20786;-69
2021/12/17 02:36:19;;;;;;;1.50;1.10;;;21.60;35.30;;;;;;5054021;28;20387;-68
2021/12/17 02:38:44;;;;;;;1.42;1.08;;;21.60;35.40;;;;;;5071924;28;20386;-68
2021/12/17 02:46:39;;;;;;;1.70;1.10;;;21.60;35.20;;;;;;5072063;28;20776;-68
2021/12/17 02:49:06;;;;;;;1.60;1.02;;;21.60;35.20;;;;;;5070960;28;20396;-68
2021/12/17 02:51:32;;;;;;;1.45;1.10;;;21.60;35.20;;;;;;5071696;28;20392;-69
2021/12/17 02:53:59;;;;;;;1.83;1.10;;;21.60;35.20;;;;;;5071691;28;20386;-68
2021/12/17 02:56:25;;;;;;;1.55;1.00;;;21.60;35.20;;;;;;5071675;28;20406;-68
2021/12/17 02:58:53;;;;;;;1.55;1.10;;;21.70;35.30;;;;;;5071270;28;20395;-68
2021/12/17 03:01:19;;;;;;;1.30;1.00;;;21.70;35.20;;;;;;5053462;28;20396;-68
2021/12/17 03:03:48;;;;;;;1.33;1.02;;;21.70;35.20;;;;;;5071488;28;20396;-68
2021/12/17 03:06:14;;;;;;;1.48;1.00;;;21.60;35.20;;;;;;5053496;28;20461;-68
2021/12/17 03:08:40;;;;;;;1.40;0.82;;;21.60;35.20;;;;;;5053473;28;20392;-68
2021/12/17 03:11:06;;;;;;;1.40;1.00;;;21.60;35.30;;;;;;5070056;28;20481;-68
2021/12/17 03:13:35;;;;;;;1.33;0.97;;;21.60;35.20;;;;;;5053501;28;20490;-68
2021/12/17 03:16:29;;;;;;;1.70;1.00;;;21.60;35.20;;;;;;5071341;28;20420;-68
2021/12/17 03:18:59;;;;;;;1.77;0.90;;;21.60;35.20;;;;;;5070856;28;20396;-68
2021/12/17 03:24:09;;;;;;;1.70;1.00;;;21.60;35.30;;;;;;5071635;28;20398;-68
2021/12/17 03:26:35;;;;;;;1.50;1.00;;;21.60;35.10;;;;;;5071320;28;20755;-68
2021/12/17 03:29:06;;;;;;;1.42;1.00;;;21.60;35.20;;;;;;5053108;28;20395;-68
2021/12/17 03:31:32;;;;;;;1.20;0.95;;;21.60;35.10;;;;;;5071295;28;20414;-68
2021/12/17 03:34:32;;;;;;;1.27;0.90;;;21.60;35.10;;;;;;5071280;28;20396;-68
2021/12/17 03:36:54;;;;;;;1.48;1.00;;;21.60;35.20;;;;;;5068628;28;20395;-68
2021/12/17 03:39:22;;;;;;;1.15;0.88;;;21.60;35.10;;;;;;5070935;28;20392;-68
2021/12/17 03:41:51;;;;;;;1.48;1.00;;;21.60;35.00;;;;;;5071022;28;20453;-68
2021/12/17 03:44:17;;;;;;;1.48;0.88;;;21.60;35.00;;;;;;5071234;28;20466;-68
2021/12/17 03:46:46;;;;;;;1.20;0.90;;;21.50;35.00;;;;;;5070934;28;20377;-68
2021/12/17 03:49:14;;;;;;;1.80;1.00;;;21.50;35.00;;;;;;5070581;28;20488;-68
2021/12/17 03:51:53;;;;;;;1.38;0.98;;;21.50;35.10;;;;;;5053101;28;20388;-68
2021/12/17 03:54:19;;;;;;;1.23;0.90;;;21.50;35.10;;;;;;5071107;28;20418;-68
2021/12/17 03:56:45;;;;;;;1.48;0.90;;;21.50;35.10;;;;;;5070924;28;20491;-68
2021/12/17 03:59:11;;;;;;;1.63;0.98;;;21.50;35.10;;;;;;5070517;28;20463;-68
2021/12/17 04:01:40;;;;;;;1.57;0.90;;;21.50;35.10;;;;;;5070990;28;20399;-68
2021/12/17 04:04:06;;;;;;;1.20;0.80;;;21.50;35.10;;;;;;5070989;28;20445;-68
2021/12/17 04:06:33;;;;;;;1.20;0.77;;;21.50;35.00;;;;;;5070674;28;20388;-68
2021/12/17 04:08:59;;;;;;;3.45;0.95;;;21.50;35.10;;;;;;5072400;28;20465;-68
2021/12/17 04:11:24;;;;;;;1.60;0.90;;;21.50;35.40;;;;;;5055772;28;20907;-68
2021/12/17 04:13:56;;;;;;;3.60;1.10;;;21.50;35.40;;;;;;5071852;28;20876;-68
2021/12/17 04:16:26;;;;;;;4.50;2.20;;;21.60;36.10;;;;;;5070708;28;20380;-68
2021/12/17 04:18:53;;;;;;;4.22;1.90;;;21.70;37.90;;;;;;5071782;28;20448;-68
2021/12/17 04:21:19;;;;;;;5.43;1.50;;;21.70;38.20;;;;;;5069964;28;20416;-68
2021/12/17 04:23:47;;;;;;;5.10;1.20;;;21.80;37.60;;;;;;5072369;28;20426;-69
2021/12/17 04:26:15;;;;;;;2.65;1.30;;;21.80;37.80;;;;;;5063444;28;20477;-69
2021/12/17 04:28:46;;;;;;;3.43;1.10;;;21.80;37.90;;;;;;5074364;28;20452;-69
2021/12/17 04:31:12;;;;;;;1.43;0.90;;;21.80;37.70;;;;;;5073037;28;20417;-69
2021/12/17 04:33:40;;;;;;;2.20;0.85;;;21.80;37.70;;;;;;5074524;28;20487;-70
2021/12/17 04:36:07;;;;;;;2.45;1.05;;;21.90;37.60;;;;;;5065403;28;20390;-70
2021/12/17 04:38:33;;;;;;;2.70;1.13;;;21.90;36.70;;;;;;5073623;28;20439;-70
2021/12/17 04:41:37;;;;;;;4.38;1.10;;;21.90;37.20;;;;;;5072144;28;20388;-70
2021/12/17 04:44:26;;;;;;;2.33;1.17;;;21.90;37.30;;;;;;5067840;28;20815;-71
2021/12/17 04:46:58;;;;;;;3.90;0.90;;;21.90;37.20;;;;;;5070485;28;20376;-71
2021/12/17 04:57:39;;;;;;;3.08;1.10;;;22.00;37.30;;;;;;5072150;28;20380;-71
2021/12/17 05:00:16;;;;;;;2.33;1.00;;;21.90;37.00;;;;;;5074204;28;20735;-70
2021/12/17 05:02:46;;;;;;;2.58;0.95;;;21.90;37.00;;;;;;5073737;28;20798;-71
2021/12/17 05:05:13;;;;;;;3.95;1.10;;;21.90;36.70;;;;;;5073096;28;20807;-70
2021/12/17 05:07:46;;;;;;;1.60;0.88;;;21.80;36.40;;;;;;5073686;28;20380;-70
2021/12/17 05:18:30;;;;;;;2.80;0.88;;;21.80;35.90;;;;;;5072858;28;20422;-71
2021/12/17 05:21:01;;;;;;;4.67;1.13;;;21.70;35.90;;;;;;5072826;28;20533;-70
2021/12/17 05:23:35;;;;;;;2.72;1.17;;;21.70;36.00;;;;;;5073117;28;20876;-70
2021/12/17 05:26:04;;;;;;;2.45;1.00;;;21.70;36.10;;;;;;5073278;28;20395;-70
2021/12/17 05:28:30;;;;;;;2.67;1.10;;;21.70;36.00;;;;;;5073259;28;20411;-71
2021/12/17 05:30:56;;;;;;;3.15;1.08;;;21.70;36.10;;;;;;5070046;28;20483;-71
2021/12/17 05:33:24;;;;;;;1.95;1.08;;;21.70;36.00;;;;;;5090452;28;20469;-70
2021/12/17 05:35:50;;;;;;;2.00;1.00;;;21.70;36.00;;;;;;5073880;28;20395;-71
2021/12/17 05:38:17;;;;;;;2.58;0.93;;;21.70;36.00;;;;;;5073101;28;21038;-70
2021/12/17 05:40:44;;;;;;;2.17;1.00;;;21.60;35.90;;;;;;5069041;28;20387;-71
2021/12/17 05:43:11;;;;;;;2.75;0.90;;;21.60;35.90;;;;;;5072241;28;20400;-70
2021/12/17 05:45:49;;;;;;;3.30;1.20;;;21.60;35.80;;;;;;5068779;28;20655;-71
2021/12/17 05:48:18;;;;;;;2.35;1.08;;;21.60;35.90;;;;;;5051023;28;20421;-71
2021/12/17 05:50:45;;;;;;;3.15;1.00;;;21.60;35.90;;;;;;5034358;28;20845;-72
2021/12/17 05:53:11;;;;;;;3.13;1.30;;;21.60;36.00;;;;;;5071345;28;20442;-71
2021/12/17 05:55:37;;;;;;;3.13;1.08;;;21.60;37.10;;;;;;5072800;28;20391;-71
2021/12/17 05:58:05;;;;;;;3.65;1.10;;;21.70;35.80;;;;;;5072609;28;20415;-71
2021/12/17 06:00:32;;;;;;;7.33;1.33;;;21.70;36.90;;;;;;5072267;28;20395;-71
2021/12/17 06:02:59;;;;;;;3.08;1.20;;;21.70;37.20;;;;;;5071978;28;20380;-72
2021/12/17 06:05:26;;;;;;;4.90;1.05;;;21.70;36.90;;;;;;5054024;28;20487;-71
2021/12/17 06:07:52;;;;;;;3.67;1.30;;;21.80;36.90;;;;;;5054439;28;20392;-71
2021/12/17 06:10:18;;;;;;;4.50;1.30;;;21.80;36.50;;;;;;5071910;28;20416;-72
2021/12/17 06:12:43;;;;;;;5.45;1.40;;;21.80;36.60;;;;;;5054724;28;20388;-71
2021/12/17 06:15:12;;;;;;;6.80;1.40;;;21.80;36.90;;;;;;5054188;28;20445;-71
2021/12/17 06:17:37;;;;;;;3.88;1.10;;;21.80;36.60;;;;;;5053673;28;20399;-72
2021/12/17 06:20:05;;;;;;;4.55;1.30;;;21.80;36.70;;;;;;5072242;28;20388;-71
2021/12/17 06:22:31;;;;;;;4.60;1.20;;;21.80;36.90;;;;;;5048177;28;20389;-72
2021/12/17 06:24:56;;;;;;;2.90;1.30;;;21.80;37.10;;;;;;5051090;28;20484;-71
2021/12/17 06:27:25;;;;;;;5.50;1.30;;;21.80;36.50;;;;;;5049717;28;20558;-72
2021/12/17 06:29:52;;;;;;;3.03;1.38;;;21.80;37.20;;;;;;5033001;28;20428;-70
2021/12/17 06:32:19;;;;;;;4.00;1.50;;;21.90;37.20;;;;;;5050908;28;20392;-72
2021/12/17 06:34:46;;;;;;;8.63;1.73;;;21.90;37.00;;;;;;5034950;28;20416;-71
2021/12/17 06:37:11;;;;;;;6.22;1.73;;;22.00;36.50;;;;;;5051215;28;20446;-70
2021/12/17 06:39:37;;;;;;;8.10;2.00;;;22.00;36.90;;;;;;5051326;28;20401;-71
2021/12/17 06:42:04;;;;;;;5.17;1.90;;;21.90;37.30;;;;;;5061422;28;20403;-71
2021/12/17 06:44:30;;;;;;;5.40;2.13;;;21.90;36.80;;;;;;5071255;28;20463;-71
2021/12/17 06:47:14;;;;;;;4.63;1.70;;;21.90;37.50;;;;;;5071273;28;20399;-69
2021/12/17 06:55:15;;;;;;;3.60;1.60;;;21.80;37.70;;;;;;5089656;28;20401;-69
2021/12/17 07:06:17;;;;;;;3.05;1.40;;;21.80;37.40;;;;;;5008265;28;20384;-69
2021/12/17 07:20:29;;;;;;;2.33;1.40;;;21.80;36.60;;;;;;5070598;28;20902;-69
2021/12/17 07:22:41;;;;;;;3.25;1.50;;;21.80;36.50;;;;;;5050836;28;20933;-69
2021/12/17 07:33:07;;;;;;;4.40;1.30;;;21.80;36.90;;;;;;5051064;28;20417;-69
2021/12/17 07:35:46;;;;;;;3.40;1.40;;;21.80;37.10;;;;;;5050569;28;20382;-69
2021/12/17 07:40:57;;;;;;;6.03;1.60;;;21.90;38.20;;;;;;5050273;28;20421;-69
2021/12/17 07:43:27;;;;;;;6.00;1.20;;;21.90;40.20;;;;;;5050176;28;20807;-69
2021/12/17 07:45:55;;;;;;;6.28;1.50;;;21.90;39.00;;;;;;5054074;28;20876;-70
2021/12/17 07:48:21;;;;;;;3.55;1.35;;;21.90;39.20;;;;;;5062068;28;20431;-71
2021/12/17 07:50:47;;;;;;;4.20;1.40;;;21.90;38.60;;;;;;5069908;28;20458;-69
2021/12/17 07:53:13;;;;;;;4.65;1.40;;;21.90;37.60;;;;;;5068784;28;20419;-70
2021/12/17 07:55:39;;;;;;;5.30;1.40;;;21.90;37.50;;;;;;5056268;28;20875;-69
2021/12/17 07:58:05;;;;;;;2.45;1.33;;;21.80;37.80;;;;;;5063142;28;20476;-69
2021/12/17 08:00:30;;;;;;;3.00;1.43;;;21.80;37.70;;;;;;5055269;28;20906;-70
2021/12/17 08:02:56;;;;;;;2.25;1.40;;;21.80;37.60;;;;;;5074098;28;20482;-69
2021/12/17 08:05:21;;;;;;;3.50;1.40;;;21.80;37.40;;;;;;5055381;28;20482;-69
2021/12/17 08:07:47;;;;;;;3.88;1.50;;;21.80;37.00;;;;;;5074021;28;20482;-71
2021/12/17 08:10:13;;;;;;;4.10;1.58;;;21.90;36.60;;;;;;5074149;28;20442;-69
2021/12/17 08:12:39;;;;;;;3.17;1.60;;;21.90;36.30;;;;;;5074081;28;20388;-70
2021/12/17 08:15:08;;;;;;;4.90;1.42;;;21.90;36.20;;;;;;5055434;28;20407;-69
2021/12/17 08:28:24;;;;;;;2.00;1.40;;;21.90;35.90;;;;;;5074013;28;20553;-70
2021/12/17 08:30:50;;;;;;;2.40;1.30;;;22.00;36.40;;;;;;5073776;28;20418;-69
2021/12/17 08:33:20;;;;;;;2.63;1.40;;;22.00;35.80;;;;;;5073690;28;20384;-70
2021/12/17 08:35:46;;;;;;;2.97;1.55;;;22.00;35.90;;;;;;5072199;28;20396;-69
2021/12/17 08:38:12;;;;;;;3.15;1.60;;;22.00;35.50;;;;;;5072914;28;20384;-69
2021/12/17 08:40:38;;;;;;;3.00;1.73;;;22.00;35.40;;;;;;5073402;28;20478;-70
2021/12/17 08:43:04;;;;;;;3.80;1.80;;;22.00;35.30;;;;;;5072428;28;20767;-70
2021/12/17 08:45:30;;;;;;;2.95;1.75;;;22.00;35.20;;;;;;5063155;28;21024;-69
2021/12/17 08:47:56;;;;;;;2.90;1.50;;;22.10;35.10;;;;;;5060197;28;20761;-69
2021/12/17 08:50:22;;;;;;;2.70;1.90;;;22.10;35.00;;;;;;5054120;28;20412;-71
2021/12/17 08:52:48;;;;;;;3.13;1.90;;;22.10;34.80;;;;;;5071971;28;20522;-71
2021/12/17 08:55:14;;;;;;;2.43;1.77;;;22.10;35.00;;;;;;5072860;28;20862;-71
2021/12/17 08:57:41;;;;;;;2.67;1.80;;;22.10;35.20;;;;;;5072445;28;20384;-71
2021/12/17 09:00:10;;;;;;;2.13;1.80;;;22.10;35.20;;;;;;5073412;28;20388;-70
2021/12/17 09:02:37;;;;;;;2.65;1.60;;;22.10;35.00;;;;;;5073284;28;20463;-71
2021/12/17 09:05:06;;;;;;;2.90;1.80;;;22.10;35.00;;;;;;5072679;28;20399;-71
2021/12/17 09:07:32;;;;;;;2.40;1.80;;;22.20;35.10;;;;;;5071676;28;20415;-70
2021/12/17 09:09:59;;;;;;;2.10;1.60;;;22.20;35.00;;;;;;5072761;28;20422;-70
2021/12/17 09:12:25;;;;;;;2.30;1.50;;;22.20;34.80;;;;;;5073104;28;20386;-70
2021/12/17 09:14:51;;;;;;;2.50;1.60;;;22.20;34.80;;;;;;5073131;28;20486;-71
2021/12/17 09:17:18;;;;;;;2.38;1.60;;;22.20;34.80;;;;;;5072831;28;20778;-70
2021/12/17 09:19:44;;;;;;;2.67;1.70;;;22.20;34.80;;;;;;5072946;28;20427;-71
2021/12/17 09:22:10;;;;;;;2.43;1.80;;;22.20;34.70;;;;;;5072570;28;20427;-71
2021/12/17 09:24:36;;;;;;;2.42;1.58;;;22.20;34.50;;;;;;5054405;28;20388;-70
2021/12/17 09:27:02;;;;;;;2.20;1.60;;;22.20;34.60;;;;;;5072810;28;20400;-70
2021/12/17 09:29:27;;;;;;;2.60;1.70;;;22.20;35.00;;;;;;5072279;28;20403;-70
2021/12/17 09:31:53;;;;;;;2.60;1.50;;;22.20;35.00;;;;;;5072659;28;20400;-70
2021/12/17 09:34:19;;;;;;;2.47;1.50;;;22.20;35.20;;;;;;5072733;28;20379;-70
2021/12/17 09:36:44;;;;;;;2.97;1.40;;;22.20;35.10;;;;;;5072661;28;20404;-70
2021/12/17 09:39:10;;;;;;;3.73;1.67;;;22.10;35.10;;;;;;5072090;28;20391;-70
2021/12/17 09:41:36;;;;;;;2.38;1.60;;;22.20;35.30;;;;;;5072069;28;20422;-70
2021/12/17 09:44:02;;;;;;;2.60;1.63;;;22.20;35.10;;;;;;5072027;28;20388;-70
2021/12/17 09:46:28;;;;;;;2.80;1.50;;;22.20;35.10;;;;;;5072329;28;20759;-70
2021/12/17 09:48:54;;;;;;;2.15;1.70;;;22.20;35.00;;;;;;5047059;28;20407;-70
2021/12/17 09:51:20;;;;;;;3.63;1.50;;;22.20;35.00;;;;;;5050418;28;20856;-71
2021/12/17 09:53:47;;;;;;;2.58;1.70;;;22.20;34.90;;;;;;5052052;28;20393;-71
2021/12/17 09:56:13;;;;;;;2.75;1.60;;;22.20;34.80;;;;;;5052126;28;20482;-71
2021/12/17 09:58:39;;;;;;;2.40;1.50;;;22.20;34.70;;;;;;5052155;28;20436;-71
2021/12/17 10:01:04;;;;;;;2.63;1.58;;;22.20;34.60;;;;;;5051483;28;20393;-72
2021/12/17 10:03:31;;;;;;;1.83;1.40;;;22.20;34.60;;;;;;5050689;28;20392;-71
2021/12/17 10:05:57;;;;;;;3.22;1.60;;;22.20;34.70;;;;;;5051583;28;20394;-72
2021/12/17 10:08:24;;;;;;;3.73;1.50;;;22.30;34.60;;;;;;5051740;28;20780;-72
2021/12/17 10:10:54;;;;;;;6.57;1.70;;;22.30;34.50;;;;;;5051661;28;20836;-71
2021/12/17 10:13:20;;;;;;;5.85;1.67;;;22.40;34.50;;;;;;5051735;28;20386;-72
2021/12/17 10:15:49;;;;;;;6.03;1.88;;;22.40;34.40;;;;;;5050488;28;20745;-72
2021/12/17 10:18:15;;;;;;;3.03;1.55;;;22.40;34.70;;;;;;5033864;28;20939;-72
2021/12/17 10:21:03;;;;;;;4.32;1.70;;;22.40;34.80;;;;;;5051273;28;20420;-72
2021/12/17 10:23:30;;;;;;;5.83;1.80;;;22.40;34.70;;;;;;5050498;28;20893;-73
2021/12/17 10:25:56;;;;;;;3.87;1.67;;;22.30;34.90;;;;;;5051279;28;20587;-70
2021/12/17 10:28:22;;;;;;;3.75;1.70;;;22.30;35.10;;;;;;5033415;28;20400;-70
2021/12/17 10:30:50;;;;;;;3.38;1.50;;;22.30;35.00;;;;;;5051162;28;20886;-70
2021/12/17 10:33:24;;;;;;;5.05;1.55;;;22.30;35.00;;;;;;5053465;28;20422;-70
2021/12/17 10:35:51;;;;;;;3.53;1.50;;;22.30;34.90;;;;;;5071347;28;20906;-71
2021/12/17 10:38:23;;;;;;;3.00;1.55;;;22.40;34.90;;;;;;5052656;28;20795;-70
2021/12/17 10:43:32;;;;;;;3.60;1.58;;;22.30;35.10;;;;;;5050910;28;20396;-71
2021/12/17 10:46:24;;;;;;;4.78;1.60;;;22.40;34.80;;;;;;5050397;28;20762;-70
2021/12/17 10:49:00;;;;;;;5.28;1.77;;;22.40;34.40;;;;;;5049992;28;20492;-70
2021/12/17 10:54:19;;;;;;;2.90;1.50;;;22.70;35.00;;;;;;5050104;28;20746;-70
2021/12/17 10:56:49;;;;;;;4.60;1.83;;;22.80;34.70;;;;;;5038414;28;20449;-70
2021/12/17 10:59:24;;;;;;;5.20;1.80;;;22.80;34.80;;;;;;5035743;28;20385;-70
2021/12/17 11:01:58;;;;;;;4.32;1.90;;;22.80;34.70;;;;;;5050382;28;20435;-71
2021/12/17 11:04:30;;;;;;;3.75;1.60;;;22.80;34.60;;;;;;5033375;28;20881;-71
2021/12/17 11:06:59;;;;;;;4.35;1.70;;;22.70;34.50;;;;;;5028651;28;20406;-71
2021/12/17 11:09:50;;;;;;;6.35;1.98;;;22.70;34.70;;;;;;5012672;28;20453;-71
2021/12/17 11:12:33;;;;;;;7.95;2.20;;;22.70;34.70;;;;;;5030970;28;20391;-69
2021/12/17 11:15:21;;;;;;;9.38;2.17;;;22.70;36.10;;;;;;5043326;28;20393;-68
2021/12/17 11:18:07;;;;;;;5.53;1.80;;;22.70;37.10;;;;;;5036178;28;20411;-69
2021/12/17 11:20:35;;;;;;;7.05;1.83;;;22.70;37.90;;;;;;5055497;28;20397;-68
2021/12/17 11:23:07;;;;;;;4.57;1.60;;;22.70;38.10;;;;;;5032546;28;20480;-68
2021/12/17 11:25:36;;;;;;;5.53;1.70;;;22.70;37.80;;;;;;5050401;28;20806;-68
2021/12/17 11:28:04;;;;;;;5.30;1.88;;;22.70;37.50;;;;;;5038666;28;20437;-68
2021/12/17 11:30:32;;;;;;;4.57;1.77;;;22.70;37.00;;;;;;5045737;28;20425;-68
2021/12/17 11:33:01;;;;;;;4.53;1.58;;;22.70;36.50;;;;;;5033959;28;20393;-68
2021/12/17 11:35:28;;;;;;;6.13;1.88;;;22.70;36.40;;;;;;5054091;28;20389;-68
2021/12/17 11:38:00;;;;;;;5.38;1.65;;;22.60;37.50;;;;;;5054073;28;20381;-68
2021/12/17 11:40:40;;;;;;;4.10;1.70;;;22.70;36.60;;;;;;5052539;28;20476;-69
2021/12/17 11:43:29;;;;;;;4.60;2.33;;;22.60;37.30;;;;;;5054428;28;20491;-69
2021/12/17 11:46:05;;;;;;;5.13;1.80;;;22.60;38.20;;;;;;5055506;28;20522;-69
2021/12/17 11:48:32;;;;;;;4.68;1.77;;;22.70;38.60;;;;;;5068399;28;20391;-69
2021/12/17 11:51:04;;;;;;;6.07;1.65;;;22.70;37.50;;;;;;5074260;28;20411;-69
2021/12/17 11:53:30;;;;;;;3.47;1.60;;;22.60;38.80;;;;;;5056286;28;20478;-68
2021/12/17 11:56:02;;;;;;;5.63;1.65;;;22.70;37.80;;;;;;5065393;28;20397;-70
2021/12/17 11:58:49;;;;;;;5.03;1.60;;;22.70;37.70;;;;;;5050728;28;20480;-70
2021/12/17 12:01:51;;;;;;;5.47;1.80;;;22.60;37.70;;;;;;5074215;28;20521;-69
2021/12/17 12:04:34;;;;;;;6.13;2.17;;;22.70;38.30;;;;;;5073929;28;20388;-69
2021/12/17 12:07:00;;;;;;;4.88;1.50;;;22.80;40.10;;;;;;5074094;28;20950;-69
2021/12/17 12:09:57;;;;;;;6.97;1.40;;;22.80;39.50;;;;;;5073953;28;20398;-69
2021/12/17 12:12:29;;;;;;;7.00;1.60;;;22.80;39.10;;;;;;5063516;28;20576;-70
2021/12/17 12:15:16;;;;;;;8.57;1.60;;;22.90;39.20;;;;;;5073912;28;20430;-69
2021/12/17 12:18:07;;;;;;;5.20;1.50;;;22.90;39.40;;;;;;5071680;28;20394;-69
2021/12/17 12:20:45;;;;;;;4.88;1.40;;;22.90;39.20;;;;;;5074603;28;20434;-69
2021/12/17 12:23:19;;;;;;;5.25;1.42;;;22.90;38.60;;;;;;5075412;28;20740;-69
2021/12/17 12:28:47;;;;;;;5.65;1.40;;;22.90;40.70;;;;;;5070510;28;20423;-69
2021/12/17 12:31:20;;;;;;;5.38;1.50;;;23.00;41.80;;;;;;5073195;28;20849;-69
2021/12/17 12:34:04;;;;;;;4.10;1.30;;;23.00;41.80;;;;;;5074192;28;20911;-69
2021/12/17 12:36:55;;;;;;;6.07;1.40;;;23.10;40.90;;;;;;5074174;28;20395;-69
2021/12/17 12:39:30;;;;;;;4.90;1.30;;;23.10;40.30;;;;;;5074015;28;20387;-68
2021/12/17 12:41:56;;;;;;;3.90;1.35;;;23.00;40.10;;;;;;5055557;28;20419;-68
2021/12/17 12:44:40;;;;;;;5.18;1.35;;;23.10;40.60;;;;;;5056056;28;20399;-68
2021/12/17 12:47:07;;;;;;;3.88;1.30;;;23.10;40.60;;;;;;5075168;28;20856;-69
2021/12/17 12:49:48;;;;;;;3.05;1.20;;;23.10;40.40;;;;;;5056264;28;20416;-68
2021/12/17 12:52:39;;;;;;;3.47;1.60;;;23.10;40.10;;;;;;5074053;28;20391;-69
2021/12/17 12:55:30;;;;;;;4.15;1.27;;;23.10;39.70;;;;;;5074462;28;20419;-68
2021/12/17 12:57:59;;;;;;;6.63;1.10;;;23.10;39.60;;;;;;5074023;28;20384;-69
2021/12/17 13:00:38;;;;;;;4.90;1.23;;;23.10;39.90;;;;;;5055760;28;20415;-69
2021/12/17 13:03:08;;;;;;;4.65;1.30;;;23.10;40.10;;;;;;5049237;28;20462;-69
2021/12/17 13:05:35;;;;;;;6.20;1.35;;;23.10;40.40;;;;;;5053460;28;20715;-69
2021/12/17 13:08:04;;;;;;;5.90;1.20;;;23.10;40.30;;;;;;5053022;28;20420;-69
2021/12/17 13:10:36;;;;;;;3.47;1.20;;;23.10;40.00;;;;;;5053336;28;20414;-70
2021/12/17 13:13:06;;;;;;;4.90;1.30;;;23.20;40.00;;;;;;5053140;28;20935;-68
2021/12/17 13:15:50;;;;;;;2.45;1.13;;;23.20;39.80;;;;;;5035131;28;20422;-69
2021/12/17 13:21:16;;;;;;;14.25;1.50;;;23.20;39.70;;;;;;5054893;28;20374;-69
2021/12/17 13:23:49;;;;;;;4.38;1.42;;;23.20;39.20;;;;;;5034746;28;20793;-68
2021/12/17 13:26:16;;;;;;;6.50;1.15;;;23.10;38.20;;;;;;5037602;28;20416;-68
2021/12/17 13:28:46;;;;;;;5.60;1.33;;;23.10;38.50;;;;;;5070611;28;20384;-68
2021/12/17 13:31:12;;;;;;;6.65;1.40;;;23.00;37.90;;;;;;5070407;28;20892;-69
2021/12/17 13:33:42;;;;;;;4.20;1.23;;;23.00;37.60;;;;;;5071944;28;20391;-68
2021/12/17 13:36:13;;;;;;;5.32;1.42;;;22.90;37.50;;;;;;5054944;28;20755;-68
2021/12/17 13:38:41;;;;;;;4.03;1.02;;;22.90;37.40;;;;;;5054500;28;20774;-68
2021/12/17 13:41:10;;;;;;;4.43;1.10;;;22.90;37.30;;;;;;5072091;28;20416;-68
2021/12/17 13:43:39;;;;;;;3.38;1.23;;;23.00;37.20;;;;;;5065426;28;20411;-69
2021/12/17 13:46:05;;;;;;;3.22;1.30;;;22.90;37.20;;;;;;5068520;28;20403;-68
2021/12/17 13:48:33;;;;;;;3.10;1.00;;;22.90;37.10;;;;;;5044914;28;20392;-68
2021/12/17 13:51:01;;;;;;;4.95;1.23;;;22.90;37.00;;;;;;5063252;28;20416;-68
2021/12/17 13:53:26;;;;;;;3.97;0.98;;;22.90;36.90;;;;;;5061395;28;20386;-68
2021/12/17 13:55:52;;;;;;;4.22;1.00;;;22.90;36.90;;;;;;5053486;28;20485;-68
2021/12/17 13:58:23;;;;;;;4.03;1.00;;;22.90;36.80;;;;;;5052706;28;20381;-69
2021/12/17 14:00:54;;;;;;;3.38;0.90;;;22.90;36.80;;;;;;5051304;28;20397;-68
2021/12/17 14:03:22;;;;;;;2.80;1.00;;;22.90;36.70;;;;;;5051322;28;20429;-68
2021/12/17 14:05:51;;;;;;;2.58;1.02;;;22.80;36.60;;;;;;5050867;28;20892;-69
2021/12/17 14:08:21;;;;;;;3.35;1.10;;;22.90;36.50;;;;;;5051897;28;20402;-68
2021/12/17 14:10:48;;;;;;;3.13;1.17;;;22.80;36.50;;;;;;5052306;28;21079;-68
2021/12/17 14:13:22;;;;;;;1.80;1.05;;;22.80;36.40;;;;;;5052492;28;20382;-68
2021/12/17 14:15:49;;;;;;;3.70;1.10;;;22.80;36.30;;;;;;5051924;28;20444;-68
2021/12/17 14:18:17;;;;;;;3.60;1.43;;;22.70;36.20;;;;;;5052357;28;20424;-68
2021/12/17 14:20:47;;;;;;;2.95;1.40;;;22.70;36.70;;;;;;5052723;28;20393;-69
2021/12/17 14:23:20;;;;;;;2.75;1.20;;;22.60;37.00;;;;;;5053308;28;20962;-69
2021/12/17 14:25:51;;;;;;;2.72;1.20;;;22.60;36.90;;;;;;5052858;28;20397;-68
2021/12/17 14:28:24;;;;;;;5.43;1.40;;;22.60;36.90;;;;;;5052837;28;20467;-69
2021/12/17 14:30:54;;;;;;;5.15;1.20;;;22.60;37.10;;;;;;5034112;28;20770;-69
2021/12/17 14:33:22;;;;;;;8.27;2.33;;;22.60;37.10;;;;;;5051824;28;20382;-69
2021/12/17 14:35:54;;;;;;;4.50;2.10;;;22.60;35.70;;;;;;5051296;28;20400;-68
2021/12/17 14:38:23;;;;;;;5.88;2.05;;;22.50;35.90;;;;;;5052042;28;20439;-68
2021/12/17 14:40:54;;;;;;;6.13;1.83;;;22.40;35.40;;;;;;5051650;28;20414;-68
2021/12/17 14:43:30;;;;;;;9.20;2.20;;;22.40;35.30;;;;;;5051927;28;20429;-68
2021/12/17 14:46:03;;;;;;;4.70;1.90;;;22.40;35.10;;;;;;5051333;28;20485;-68
2021/12/17 14:48:38;;;;;;;4.28;1.80;;;22.40;35.90;;;;;;5051848;28;20386;-68
2021/12/17 15:05:12;;;;;;;4.80;1.58;;;22.40;35.50;;;;;;5048062;28;20417;-68
2021/12/17 15:07:38;;;;;;;3.25;1.40;;;22.30;35.50;;;;;;5050907;28;20912;-68
2021/12/17 15:10:07;;;;;;;2.88;1.20;;;22.30;35.50;;;;;;5051498;28;20421;-68
2021/12/17 15:15:01;;;;;;;2.25;1.00;;;22.30;35.60;;;;;;5051422;28;20423;-69
2021/12/17 15:17:27;;;;;;;2.60;1.20;;;22.20;35.80;;;;;;5051226;28;20381;-68
2021/12/17 15:19:52;;;;;;;2.33;1.20;;;22.10;35.80;;;;;;5051017;28;20394;-69
2021/12/17 15:22:18;;;;;;;3.05;1.20;;;22.10;36.00;;;;;;5051121;28;20832;-70
2021/12/17 15:24:43;;;;;;;1.83;1.23;;;22.10;36.00;;;;;;5051320;28;20404;-68
2021/12/17 15:27:09;;;;;;;2.38;1.10;;;22.10;36.00;;;;;;5051321;28;20897;-68
2021/12/17 15:29:35;;;;;;;2.50;1.00;;;22.10;35.90;;;;;;5050999;28;20572;-68
2021/12/17 15:32:01;;;;;;;1.80;1.00;;;22.00;36.00;;;;;;5033148;28;20409;-69
2021/12/17 15:34:27;;;;;;;3.40;1.10;;;21.90;36.00;;;;;;5051273;28;20382;-68
2021/12/17 15:36:56;;;;;;;2.13;1.27;;;21.90;36.10;;;;;;5051315;28;20475;-68
2021/12/17 15:39:22;;;;;;;1.60;1.10;;;21.90;36.20;;;;;;5033272;28;20393;-68
2021/12/17 15:41:48;;;;;;;1.70;1.03;;;21.90;36.10;;;;;;5032690;28;20424;-68
2021/12/17 15:44:13;;;;;;;2.65;1.10;;;21.90;36.00;;;;;;5051319;28;20473;-68
2021/12/17 15:46:39;;;;;;;2.30;1.00;;;21.80;36.10;;;;;;5051059;28;20484;-68
2021/12/17 15:49:05;;;;;;;1.50;0.88;;;21.70;36.20;;;;;;5032970;28;20393;-68
2021/12/17 15:51:32;;;;;;;2.33;1.00;;;21.70;36.30;;;;;;5032450;28;20417;-68
2021/12/17 15:53:58;;;;;;;1.90;1.10;;;21.70;36.30;;;;;;5052744;28;20400;-68
2021/12/17 15:56:24;;;;;;;4.78;1.30;;;21.70;36.40;;;;;;5059546;28;20392;-69
2021/12/17 15:58:50;;;;;;;6.70;1.15;;;21.70;36.50;;;;;;5033216;28;20385;-68
2021/12/17 16:01:16;;;;;;;3.58;1.20;;;21.60;36.70;;;;;;5065975;28;20911;-68
2021/12/17 16:03:43;;;;;;;4.43;1.30;;;21.50;37.40;;;;;;5069635;28;20471;-68